This is the latest recevied weather packets stored in our database for station/object K9MWD. If no packets are shown the sender has not sent any weather packets the latest 10 day(s).
| Time | Temp. | Humidity | Pressure | Rain* | Wind** | Luminosity | Snow |
|---|---|---|---|---|---|---|---|
| 1788632604 | 35° C | 48% | 1013.8 hPa | 0 mm | - | 188 W/m² | - |
| 1788632299 | 35° C | 48% | 1013.9 hPa | 0 mm | - | 189 W/m² | - |
| 1788631999 | 35.56° C | 48% | 1013.9 hPa | 0 mm | - | 184 W/m² | - |
| 1788631698 | 36.11° C | 46% | 1013.9 hPa | 0 mm | - | 470 W/m² | - |
| 1788631393 | 36.67° C | 45% | 1014.2 hPa | 0 mm | - | 988 W/m² | - |
| 1788631088 | 35.56° C | 48% | 1014.3 hPa | 0 mm | - | 988 W/m² | - |
| 1788630782 | 34.44° C | 49% | 1014.2 hPa | 0 mm | - | 998 W/m² | - |
| 1788630478 | 34.44° C | 49% | 1014.3 hPa | 0 mm | - | 214 W/m² | - |
| 1788630174 | 35° C | 49% | 1014.2 hPa | 0 mm | - | 996 W/m² | - |
| 1788629869 | 35.56° C | 46% | 1014.6 hPa | 0 mm | - | 932 W/m² | - |
| 1788629565 | 36.11° C | 47% | 1014.5 hPa | 0 mm | - | 895 W/m² | - |
| 1788629258 | 35.56° C | 46% | 1014.6 hPa | 0 mm | - | 882 W/m² | - |
| 1788628952 | 35° C | 49% | 1014.6 hPa | 0 mm | - | 853 W/m² | - |
| 1788628649 | 35° C | 49% | 1014.7 hPa | 0 mm | - | 833 W/m² | - |
| 1788628345 | 35° C | 49% | 1015 hPa | 0 mm | - | 810 W/m² | - |
| 1788628041 | 35° C | 49% | 1014.7 hPa | 0 mm | - | 825 W/m² | - |
| 1788627741 | 34.44° C | 49% | 1015 hPa | 0 mm | - | 189 W/m² | - |
| 1788627441 | 35° C | 47% | 1014.7 hPa | 0 mm | - | 797 W/m² | - |
| 1788627136 | 35° C | 47% | 1014.8 hPa | 0 mm | - | 788 W/m² | - |
| 1788626836 | 34.44° C | 50% | 1014.8 hPa | 0 mm | - | 781 W/m² | - |
| 1788626531 | 33.89° C | 52% | 1014.8 hPa | 0 mm | - | 769 W/m² | - |
| 1788626226 | 35° C | 51% | 1015 hPa | 0 mm | - | 755 W/m² | - |
| 1788625923 | 34.44° C | 50% | 1014.8 hPa | 0 mm | - | 746 W/m² | - |
| 1788625619 | 34.44° C | 49% | 1015 hPa | 0 mm | - | 736 W/m² | - |
| 1788625318 | 34.44° C | 49% | 1015.1 hPa | 0 mm | - | 724 W/m² | - |
* Rain latest hour (hover to see other rain measurements)
** Current wind speed in m/s (hover to see current wind gust speed)